createdAt,value
2022-10-08T00:02:03.286Z,100.00
2022-10-08T00:07:04.826Z,100.00
2022-10-08T00:12:06.570Z,100.00
2022-10-08T00:17:08.193Z,100.00
2022-10-08T00:22:09.686Z,100.00
2022-10-08T00:27:11.211Z,100.00
2022-10-08T00:32:12.653Z,100.00
2022-10-08T00:37:14.609Z,100.00
2022-10-08T00:42:16.036Z,100.00
2022-10-08T00:47:20.173Z,100.00
2022-10-08T00:52:24.844Z,100.00
2022-10-08T00:57:26.704Z,100.00
2022-10-08T01:02:28.133Z,100.00
2022-10-08T01:07:39.108Z,100.00
2022-10-08T01:12:48.275Z,100.00
2022-10-08T01:18:01.040Z,100.00
2022-10-08T01:23:21.538Z,100.00
2022-10-08T01:28:34.989Z,100.00
2022-10-08T01:33:40.483Z,100.00
2022-10-08T01:38:47.898Z,100.00
2022-10-08T01:43:57.518Z,100.00
2022-10-08T01:49:06.884Z,100.00
2022-10-08T01:54:11.850Z,100.00
2022-10-08T01:59:22.715Z,100.00
2022-10-08T02:04:26.152Z,100.00
2022-10-08T02:09:30.555Z,100.00
2022-10-08T02:14:34.144Z,100.00
2022-10-08T02:19:48.332Z,100.00
2022-10-08T02:24:55.787Z,100.00
2022-10-08T02:30:07.198Z,100.00
2022-10-08T02:35:15.805Z,100.00
2022-10-08T02:40:18.810Z,100.00
2022-10-08T02:45:26.815Z,100.00
2022-10-08T02:50:29.087Z,100.00
2022-10-08T02:55:44.391Z,100.00
2022-10-08T03:00:55.415Z,100.00
2022-10-08T03:05:57.953Z,100.00
2022-10-08T03:10:59.476Z,100.00
2022-10-08T03:16:01.319Z,100.00
2022-10-08T03:21:03.337Z,100.00
2022-10-08T03:26:04.924Z,100.00
2022-10-08T03:31:06.531Z,100.00
2022-10-08T03:36:08.116Z,100.00
2022-10-08T03:41:09.536Z,100.00
2022-10-08T03:46:12.439Z,100.00
2022-10-08T03:51:14.761Z,100.00
2022-10-08T03:56:22.407Z,100.00
2022-10-08T04:01:25.052Z,100.00
2022-10-08T04:06:26.982Z,100.00
2022-10-08T04:11:29.206Z,100.00
2022-10-08T04:16:30.886Z,100.00
2022-10-08T04:21:32.268Z,100.00
2022-10-08T04:26:33.644Z,100.00
2022-10-08T04:31:35.127Z,100.00
2022-10-08T04:36:36.577Z,100.00
2022-10-08T04:41:37.910Z,100.00
2022-10-08T04:46:39.324Z,100.00
2022-10-08T04:51:40.892Z,100.00
2022-10-08T04:56:42.342Z,100.00
2022-10-08T05:01:43.859Z,100.00
2022-10-08T05:06:45.220Z,100.00
2022-10-08T05:11:46.698Z,100.00
2022-10-08T05:16:48.612Z,100.00
2022-10-08T05:21:49.965Z,100.00
2022-10-08T05:26:58.507Z,100.00
2022-10-08T05:32:00.567Z,100.00
2022-10-08T05:37:01.928Z,100.00
2022-10-08T05:42:03.449Z,100.00
2022-10-08T05:47:04.856Z,100.00
2022-10-08T05:52:06.222Z,100.00
2022-10-08T05:57:07.610Z,100.00
2022-10-08T06:02:10.902Z,100.00
2022-10-08T06:07:12.284Z,100.00
2022-10-08T06:12:13.751Z,100.00
2022-10-08T06:17:15.161Z,100.00
2022-10-08T06:22:16.521Z,100.00
2022-10-08T06:27:17.922Z,100.00
2022-10-08T06:32:19.419Z,100.00
2022-10-08T06:37:20.776Z,100.00
2022-10-08T06:42:22.224Z,100.00
2022-10-08T06:47:23.730Z,100.00
2022-10-08T06:52:25.132Z,100.00
2022-10-08T06:57:26.638Z,100.00
2022-10-08T07:02:28.099Z,100.00
2022-10-08T07:07:29.612Z,100.00
2022-10-08T07:12:31.373Z,100.00
2022-10-08T07:17:32.987Z,100.00
2022-10-08T07:22:34.977Z,100.00
2022-10-08T07:27:37.456Z,100.00
2022-10-08T07:32:42.921Z,100.00
2022-10-08T07:37:46.131Z,100.00
2022-10-08T07:42:48.104Z,100.00
2022-10-08T07:47:49.978Z,100.00
2022-10-08T07:52:54.251Z,100.00
2022-10-08T07:57:55.829Z,100.00
2022-10-08T08:02:57.415Z,100.00
2022-10-08T08:07:58.958Z,100.00
2022-10-08T08:18:30.596Z,100.00
2022-10-08T08:23:41.328Z,100.00
2022-10-08T08:28:47.111Z,86.92
2022-10-08T08:34:24.054Z,86.00
2022-10-08T09:04:28.344Z,100.00
2022-10-08T09:09:48.497Z,100.00
2022-10-08T09:14:53.770Z,100.00
2022-10-08T09:19:55.521Z,100.00
2022-10-08T09:25:11.469Z,100.00
2022-10-08T09:36:03.942Z,100.00
2022-10-08T09:41:19.367Z,100.00
2022-10-08T09:46:33.152Z,100.00
2022-10-08T09:51:34.736Z,100.00
2022-10-08T09:56:36.301Z,48.12
2022-10-08T10:01:45.611Z,54.12
2022-10-08T10:06:47.427Z,100.00
2022-10-08T10:12:22.580Z,100.00
2022-10-08T10:17:49.881Z,100.00
2022-10-08T10:22:59.601Z,100.00
2022-10-08T10:28:19.144Z,100.00
2022-10-08T10:33:24.842Z,100.00
2022-10-08T10:38:32.509Z,100.00
2022-10-08T10:43:50.226Z,100.00
2022-10-08T10:54:39.498Z,100.00
2022-10-08T11:00:30.553Z,100.00
2022-10-08T11:05:43.087Z,100.00
2022-10-08T11:11:13.761Z,100.00
2022-10-08T11:22:20.263Z,100.00
2022-10-08T11:28:08.149Z,100.00
2022-10-08T11:33:14.126Z,56.46
2022-10-08T11:44:01.988Z,56.40
2022-10-08T11:49:23.113Z,100.00
2022-10-08T11:54:34.929Z,100.00
2022-10-08T12:00:50.186Z,100.00
2022-10-08T12:05:58.627Z,100.00
2022-10-08T12:11:45.434Z,100.00
2022-10-08T12:16:56.234Z,100.00
2022-10-08T12:22:00.695Z,51.60
2022-10-08T12:27:37.737Z,100.00
2022-10-08T12:32:54.592Z,37.00
2022-10-08T12:38:04.437Z,33.97
2022-10-08T12:43:17.400Z,32.32
2022-10-08T12:48:30.167Z,31.19
2022-10-08T12:53:46.819Z,35.30
2022-10-08T12:58:49.404Z,32.53
2022-10-08T13:04:16.818Z,32.00
2022-10-08T13:09:26.842Z,100.00
2022-10-08T13:14:30.717Z,100.00
2022-10-08T13:20:08.378Z,100.00
2022-10-08T13:31:35.220Z,100.00
2022-10-08T13:36:38.080Z,100.00
2022-10-08T13:41:39.916Z,100.00
2022-10-08T13:52:14.272Z,100.00
2022-10-08T13:57:21.652Z,100.00
2022-10-08T14:02:27.661Z,100.00
2022-10-08T14:07:33.688Z,100.00
2022-10-08T14:12:35.421Z,100.00
2022-10-08T14:17:42.286Z,100.00
2022-10-08T14:22:43.920Z,100.00
2022-10-08T14:27:46.392Z,42.29
2022-10-08T14:32:48.003Z,44.60
2022-10-08T14:37:55.665Z,100.00
2022-10-08T14:42:57.091Z,100.00
2022-10-08T14:47:58.717Z,100.00
2022-10-08T14:53:29.564Z,100.00
2022-10-08T14:58:58.598Z,100.00
2022-10-08T15:04:00.737Z,100.00
2022-10-08T15:09:02.230Z,100.00
2022-10-08T15:14:08.154Z,100.00
2022-10-08T15:19:10.101Z,100.00
2022-10-08T15:24:11.614Z,100.00
2022-10-08T15:29:17.457Z,100.00
2022-10-08T15:34:22.908Z,100.00
2022-10-08T15:39:24.455Z,100.00
2022-10-08T15:44:29.865Z,100.00
2022-10-08T15:49:36.993Z,100.00
2022-10-08T15:54:49.217Z,100.00
2022-10-08T15:59:50.758Z,100.00
2022-10-08T16:04:52.479Z,100.00
2022-10-08T16:09:54.242Z,100.00
2022-10-08T16:15:00.934Z,100.00
2022-10-08T16:20:02.635Z,100.00
2022-10-08T16:25:07.458Z,100.00
2022-10-08T16:30:09.181Z,100.00
2022-10-08T16:35:16.250Z,100.00
2022-10-08T16:40:23.804Z,100.00
2022-10-08T16:45:25.403Z,100.00
2022-10-08T16:50:27.276Z,100.00
2022-10-08T16:55:32.515Z,100.00
2022-10-08T17:00:35.136Z,100.00
2022-10-08T17:05:41.980Z,100.00
2022-10-08T17:10:43.553Z,100.00
2022-10-08T17:16:04.848Z,100.00
2022-10-08T17:21:07.387Z,100.00
2022-10-08T17:26:11.824Z,100.00
2022-10-08T17:31:16.914Z,100.00
2022-10-08T17:36:26.949Z,100.00
2022-10-08T17:41:40.075Z,100.00
2022-10-08T17:46:44.190Z,100.00
2022-10-08T17:51:49.049Z,100.00
2022-10-08T17:56:50.641Z,100.00
2022-10-08T18:01:53.535Z,100.00
2022-10-08T18:43:28.943Z,100.00
2022-10-08T19:12:49.398Z,100.00
2022-10-08T19:23:18.593Z,100.00
2022-10-08T19:28:30.967Z,100.00
2022-10-08T19:33:33.227Z,100.00
2022-10-08T19:50:22.120Z,100.00
2022-10-08T19:55:26.404Z,100.00
2022-10-08T20:00:27.914Z,100.00
2022-10-08T20:11:34.471Z,100.00
2022-10-08T20:16:54.196Z,100.00
2022-10-08T20:22:09.662Z,100.00
2022-10-08T20:27:14.518Z,100.00
2022-10-08T20:32:29.203Z,100.00
2022-10-08T20:37:45.412Z,100.00
2022-10-08T20:43:13.699Z,100.00
2022-10-08T20:49:21.859Z,100.00
2022-10-08T20:55:05.714Z,100.00
2022-10-08T21:06:44.513Z,100.00
2022-10-08T21:12:22.539Z,100.00
2022-10-08T21:23:06.052Z,100.00
2022-10-08T21:40:10.906Z,100.00
2022-10-08T21:45:12.307Z,100.00
2022-10-08T21:50:13.815Z,100.00
2022-10-08T21:55:18.498Z,100.00
2022-10-08T22:00:59.472Z,100.00
2022-10-08T22:06:26.442Z,100.00
2022-10-08T22:12:00.079Z,100.00
2022-10-08T22:17:23.723Z,100.00
2022-10-08T22:29:05.137Z,100.00
2022-10-08T22:45:38.174Z,100.00
2022-10-08T22:52:05.999Z,100.00
2022-10-08T23:14:03.994Z,100.00
2022-10-08T23:20:25.989Z,100.00
2022-10-08T23:36:14.049Z,100.00
2022-10-08T23:41:15.532Z,100.00
2022-10-08T23:46:19.834Z,100.00
2022-10-08T23:51:23.307Z,100.00
2022-10-08T23:56:24.863Z,100.00
